Kaduna Airport

DNKA · Kaduna, Nigeria

METAR-Geschichte DNKA · Kaduna Airport

Unten siehst du die METARs der letzten paar Tage. Wähle ein Jahr, um ältere METARs ab dem Jahr 2007 zu durchsuchen.

3. März 2024

Uhrzeit Code Wetter Temp. Sichtweite Wolkendecke Wind METAR/SPECI
02:00
V
29 °C 10 km+ - 160° 160° 3 kt METAR DNAA 030100Z 16003KT CAVOK 29/22 Q1012 NOSIG
01:00
V
33 °C 10 km+ - 260° 260° 3 kt METAR DNAA 030000Z 26003KT CAVOK 33/19 Q1012 NOSIG
00:00
V
29 °C 10 km+ - 010° 010° 3 kt METAR DNAA 022300Z 01003KT CAVOK 29/22 Q1012 NOSIG

2. März 2024

Uhrzeit Code Wetter Temp. Sichtweite Wolkendecke Wind METAR/SPECI
23:00
V
30 °C 10 km+ - 140° 140° 4 kt METAR DNAA 022200Z 14004KT CAVOK 30/22 Q1012 NOSIG
22:00
V
30 °C 10 km+ - 200° 200° 3 kt METAR DNAA 022100Z 20003KT CAVOK 30/22 Q1013 NOSIG
21:00
V
30 °C 10 km+ - 240° 240° 2 kt METAR DNAA 022000Z 24002KT CAVOK 30/21 Q1012 NOSIG
20:00
V
31 °C 10 km+ - 170° 170° 12 kt METAR DNAA 021900Z 17012KT 9999 FEW012 31/21 Q1010 NOSIG
19:00
V
35 °C 10 km+ - 140° 140° 12 kt METAR DNAA 021800Z 14012KT 9999 SCT013 FEW020CB 35/21 Q1010 TEMPO TS
18:00
V
37 °C 10 km+ - 240° 240° 4 kt METAR DNAA 021700Z 24004KT 9999 SCT014 FEW020CB 37/21 Q1009 TEMPO TS
17:00
M
38 °C 10 km+ 1.400 ft 240° 240° 6 kt METAR DNAA 021600Z 24006KT 9999 BKN014 38/21 Q1008 TEMPO TS FEW020CB
16:00
V
38 °C 10 km+ - 120° 120° 3 kt METAR DNAA 021500Z 12003KT 9999 SCT014 38/21 Q1008 NOSIG
15:00
M
37 °C 10 km+ 1.500 ft 200° 200° 4 kt METAR DNAA 021400Z 20004KT 9999 BKN015 37/21 Q1009 NOSIG
14:00
V
37 °C 10 km+ - 180° 180° 6 kt METAR DNAA 021300Z 18006KT 9999 SCT014 37/23 Q1011 NOSIG
13:00
M
35 °C 10 km+ 1.400 ft 330° 330° 8 kt METAR DNAA 021200Z 33008KT 9999 BKN014 35/22 Q1011 NOSIG
12:00
V
34 °C 10 km+ - 310° 310° 8 kt METAR DNAA 021100Z 31008KT 9999 SCT013 34/24 Q1012 NOSIG
11:00
V
33 °C 10 km+ - 280° 280° 9 kt METAR DNAA 021000Z 28009KT 9999 SCT013 33/24 Q1013 NOSIG
10:00
V
31 °C 10 km+ - 280° 280° 4 kt METAR DNAA 020900Z 28004KT 9999 FEW012 31/23 Q1013 NOSIG
09:00
V
30 °C 10 km+ - 260° 260° 6 kt METAR DNAA 020800Z 26006KT CAVOK 30/23 Q1013 NOSIG
08:00
V
28 °C 10 km+ - 030° 030° 3 kt METAR DNAA 020700Z 03003KT CAVOK 28/22 Q1012 NOSIG
07:00
V
27 °C 10 km+ - 010° 010° 4 kt METAR DNAA 020600Z 01004KT CAVOK 27/22 Q1012 NOSIG
06:00
V
27 °C 10 km+ - 260° 260° 4 kt METAR DNAA 020500Z 26004KT CAVOK 27/22 Q1011 NOSIG
05:00
V
27 °C 10 km+ - 220° 220° 3 kt METAR DNAA 020400Z 22003KT CAVOK 27/22 Q1010 NOSIG
04:00
V
28 °C 10 km+ - 050° 050° 4 kt METAR DNAA 020300Z 05004KT CAVOK 28/23 Q1010 NOSIG
03:00
V
28 °C 10 km+ - 360° 360° 4 kt METAR DNAA 020200Z 36004KT CAVOK 28/22 Q1010 NOSIG
02:00
V
28 °C 10 km+ - 020° 020° 2 kt METAR DNAA 020100Z 02002KT CAVOK 28/22 Q1010 NOSIG
01:00
V
29 °C 10 km+ - 350° 350° 3 kt METAR DNAA 020000Z 35003KT CAVOK 29/23 Q1010 NOSIG
00:00
V
29 °C 10 km+ - 130° 130° 3 kt METAR DNAA 012300Z 13003KT CAVOK 29/23 Q1011 NOSIG

1. März 2024

Uhrzeit Code Wetter Temp. Sichtweite Wolkendecke Wind METAR/SPECI
23:00
V
30 °C 10 km+ - 060° 060° 3 kt METAR DNAA 012200Z 06003KT CAVOK 30/22 Q1010 NOSIG
22:00
V
31 °C 10 km+ - 050° 050° 2 kt METAR DNAA 012100Z 05002KT CAVOK 31/23 Q1010 NOSIG
21:00
V
31 °C 10 km+ - 250° 250° 2 kt METAR DNAA 012000Z 25002KT CAVOK 31/22 Q1010 NOSIG
20:00
V
32 °C 10 km+ - 250° 250° 4 kt METAR DNAA 011900Z 25004KT CAVOK 32/22 Q1009 NOSIG
19:00
V
33 °C 10 km+ - 290° 290° 8 kt METAR DNAA 011800Z 29008KT CAVOK 33/21 Q1009 NOSIG
18:00
V
34 °C 10 km+ - 290° 290° 9 kt METAR DNAA 011700Z 29009KT CAVOK 34/21 Q1008 NOSIG
17:00
V
35 °C 10 km+ - 290° 290° 10 kt METAR DNAA 011600Z 29010KT 9999 FEW014 35/22 Q1007 NOSIG
16:00
V
35 °C 10 km+ - 260° 260° 11 kt METAR DNAA 011500Z 26011KT 9999 FEW014 35/22 Q1007 NOSIG
15:00
V
36 °C 10 km+ - 250° 250° 7 kt METAR DNAA 011400Z 25007KT 9999 SCT015 36/22 Q1007 NOSIG
13:00
V
34 °C 10 km+ - 240° 240° 11 kt METAR DNAA 011200Z 24011KT 9999 SCT014 34/23 Q1011 NOSIG
12:00
V
33 °C 10 km+ - 280° 280° 6 kt METAR DNAA 011100Z 28006KT 9999 SCT013 33/24 Q1012 NOSIG
11:00
V
31 °C 10 km+ - 280° 280° 5 kt METAR DNAA 011000Z 28005KT 9999 SCT012 31/24 Q1013 NOSIG
10:00
M
30 °C 10 km+ 1.100 ft 200° 200° 3 kt METAR DNAA 010900Z 20003KT 9999 BKN011 30/24 Q1013 TEMPO TS FEW020CB
09:00
M
29 °C 10 km+ 1.000 ft 230° 230° 7 kt METAR DNAA 010800Z 23007KT 9999 BKN010 29/24 Q1012 TEMPO TS FEW020CB
08:00
V
29 °C 10 km+ - 230° 230° 6 kt METAR DNAA 010700Z 23006KT 9999 SCT010 29/25 Q1012 BECMG BKN011
07:00
V
28 °C 10 km+ - 230° 230° 7 kt METAR DNAA 010600Z 23007KT CAVOK 28/24 Q1011 NOSIG
06:00
V
29 °C 10 km+ - 240° 240° 7 kt METAR DNAA 010500Z 24007KT CAVOK 29/24 Q1010 NOSIG
05:00
V
29 °C 10 km+ - 210° 210° 7 kt METAR DNAA 010400Z 21007KT CAVOK 29/24 Q1010 NOSIG
04:00
V
30 °C 10 km+ - 230° 230° 10 kt METAR DNAA 010300Z 23010KT CAVOK 30/25 Q1010 NOSIG
03:00
V
30 °C 10 km+ - 240° 240° 7 kt METAR DNAA 010200Z 24007KT CAVOK 30/21 Q1010 NOSIG
02:00
V
31 °C 10 km+ - 170° 170° 8 kt METAR DNAA 010100Z 17008KT CAVOK 31/21 Q1010 NOSIG
01:00
V
31 °C 10 km+ - 180° 180° 13 kt METAR DNAA 010000Z 18013KT CAVOK 31/21 Q1010 NOSIG
00:00
V
32 °C 10 km+ - 170° 170° 11 kt METAR DNAA 292300Z 17011KT 9999 TS FEW012 FEW020CB 32/20 Q1010 NOSIG

29. Februar 2024

Uhrzeit Code Wetter Temp. Sichtweite Wolkendecke Wind METAR/SPECI
23:00
V
32 °C 10 km+ - 180° 180° 7 kt METAR DNAA 292200Z 18007KT 9999 TS FEW012 FEW020CB 32/19 Q1010 NOSIG
22:00
V
32 °C 10 km+ - 160° 160° 9 kt METAR DNAA 292100Z 16009KT 9999 TS FEW013 FEW020CB 32/20 Q1010 NOSIG
21:00
V
32 °C 10 km+ - 190° 190° 6 kt METAR DNAA 292000Z 19006KT 9999 TS FEW013 FEW020CB 32/20 Q1009 TEMPO 06020G45KT 5000 -TSRA BKN010 FEW019CB
20:00
V
31 °C 10 km+ - 270° 270° 3 kt METAR DNAA 291900Z 27003KT 9999 TS FEW012 FEW020CB 31/21 Q1008 TEMPO 06020G45KT 5000 -TSRA BKN010 FEW019CB
19:00
V
30 °C 10 km+ - 230° 230° 5 kt METAR DNAA 291800Z 23005KT CAVOK 30/23 Q1006 NOSIG
18:00
V
36 °C 10 km+ - 220° 220° 7 kt METAR DNAA 291700Z 22007KT 9999 FEW014 FEW020CB 36/20 Q1006 TEMPO TS
17:00
V
36 °C 10 km+ - 260° 260° 10 kt METAR DNAA 291600Z 26010KT 9999 FEW015 FEW020CB 36/22 Q1006 TEMPO TS
16:00
V
36 °C 10 km+ - 260° 260° 10 kt METAR DNAA 291500Z 26010KT 9999 FEW015 36/21 Q1006 TEMPO TS FEW020CB
14:00
V
37 °C 10 km+ - 260° 260° 9 kt METAR DNAA 291300Z 26009KT 9999 FEW015 37/22 Q1008 NOSIG
13:00
V
37 °C 10 km+ - 260° 260° 8 kt METAR DNAA 291200Z 26008KT 9999 FEW015 37/23 Q1009 NOSIG
12:00
V
34 °C 8 km - 250° 250° 9 kt METAR DNAA 291100Z 25009KT 8000 NSC 34/23 Q1010 NOSIG
11:00
V
33 °C 8 km - 290° 290° 8 kt METAR DNAA 291000Z 29008KT 8000 FEW014 33/22 Q1011 NOSIG
10:00
V
31 °C 8 km - 250° 250° 8 kt METAR DNAA 290900Z 25008KT 8000 NSC 31/23 Q1011 NOSIG
09:00
V
30 °C 10 km+ - 260° 260° 3 kt METAR DNAA 290800Z 26003KT CAVOK 30/22 Q1011 NOSIG
08:00
V
28 °C 10 km+ - 260° 260° 3 kt METAR DNAA 290700Z 26003KT CAVOK 28/22 Q1011 NOSIG
07:00
V
27 °C 10 km+ - 350° 350° 3 kt METAR DNAA 290600Z 35003KT CAVOK 27/21 Q1010 NOSIG